Time;durP1;ratioP1;P1;durP2;ratioP2;P2;SDS_P1;SDS_P2;PMS_P1;PMS_P2;Temp;Humidity;BMP_temperature;BMP_pressure;BME280_temperature;BME280_humidity;BME280_pressure;Samples;Min_cycle;Max_cycle;Signal;HPM_P1;HPM_P2
2023/06/02 00:01:15;;;;;;;14.63;11.87;;;11.40;99.90;;;;;;6010857;23;20428;-61
2023/06/02 00:03:43;;;;;;;13.07;8.70;;;11.40;99.90;;;;;;6010734;23;20420;-61
2023/06/02 00:06:11;;;;;;;16.47;10.10;;;11.40;99.90;;;;;;6010472;23;20476;-61
2023/06/02 00:08:40;;;;;;;16.33;9.30;;;11.40;99.90;;;;;;6010486;23;20441;-61
2023/06/02 00:11:08;;;;;;;10.73;6.70;;;11.40;99.90;;;;;;6010800;23;20451;-61
2023/06/02 00:13:36;;;;;;;18.80;7.60;;;11.40;99.90;;;;;;6010557;23;20421;-61
2023/06/02 00:16:03;;;;;;;15.87;7.87;;;11.40;99.90;;;;;;6010765;23;20428;-61
2023/06/02 00:18:32;;;;;;;9.97;5.83;;;11.40;99.90;;;;;;6010670;23;20422;-61
2023/06/02 00:21:01;;;;;;;8.57;4.70;;;11.50;99.90;;;;;;6010660;23;20422;-61
2023/06/02 00:23:29;;;;;;;10.20;4.80;;;11.70;99.90;;;;;;6010421;23;20504;-61
2023/06/02 00:25:56;;;;;;;13.93;5.60;;;11.80;98.70;;;;;;6010681;23;20421;-61
2023/06/02 00:28:23;;;;;;;10.37;5.70;;;11.80;98.20;;;;;;6010491;23;20713;-61
2023/06/02 00:30:51;;;;;;;9.37;5.00;;;11.90;97.00;;;;;;6010397;23;20760;-61
2023/06/02 00:33:18;;;;;;;11.40;5.13;;;11.90;96.60;;;;;;6010098;23;20724;-61
2023/06/02 00:35:45;;;;;;;10.70;5.90;;;11.90;96.50;;;;;;6010648;23;20421;-61
2023/06/02 00:38:12;;;;;;;9.53;5.03;;;11.80;96.00;;;;;;6010436;23;20421;-61
2023/06/02 00:40:39;;;;;;;11.10;5.97;;;11.80;95.50;;;;;;6010591;23;20432;-61
2023/06/02 00:43:06;;;;;;;15.30;4.60;;;11.80;95.10;;;;;;6010425;23;20425;-61
2023/06/02 00:45:33;;;;;;;10.23;3.80;;;11.80;94.70;;;;;;6010613;23;20422;-61
2023/06/02 00:48:02;;;;;;;7.80;4.60;;;11.90;94.00;;;;;;6010322;23;20796;-61
2023/06/02 00:50:29;;;;;;;10.43;5.57;;;11.90;93.50;;;;;;6010125;23;20448;-61
2023/06/02 00:52:57;;;;;;;14.40;5.60;;;11.90;93.70;;;;;;6009980;23;20428;-61
2023/06/02 00:55:24;;;;;;;11.23;5.00;;;11.90;93.30;;;;;;6010485;23;20443;-61
2023/06/02 00:57:53;;;;;;;15.40;5.83;;;11.90;91.80;;;;;;6010444;23;20425;-61
2023/06/02 01:00:21;;;;;;;11.23;6.00;;;11.80;92.40;;;;;;6010028;23;20940;-61
2023/06/02 01:02:49;;;;;;;13.27;6.93;;;11.90;91.80;;;;;;6009840;23;20932;-61
2023/06/02 01:05:19;;;;;;;13.20;7.20;;;11.80;92.10;;;;;;6010002;23;20421;-61
2023/06/02 01:07:48;;;;;;;12.97;6.40;;;11.90;91.70;;;;;;6010355;23;20427;-61
2023/06/02 01:10:16;;;;;;;10.10;6.40;;;11.80;91.90;;;;;;6010048;23;20525;-61
2023/06/02 01:12:44;;;;;;;13.53;7.80;;;11.90;91.70;;;;;;6009957;23;20422;-61
2023/06/02 01:15:12;;;;;;;14.00;8.30;;;11.90;91.70;;;;;;6010363;23;20480;-61
2023/06/02 01:17:45;;;;;;;14.93;7.33;;;11.90;91.70;;;;;;6009888;23;20436;-61
2023/06/02 01:20:14;;;;;;;14.30;7.70;;;11.90;91.70;;;;;;6010429;23;20401;-61
2023/06/02 01:22:49;;;;;;;14.73;8.83;;;11.90;91.70;;;;;;6009800;23;20459;-61
2023/06/02 01:25:23;;;;;;;15.30;9.00;;;11.90;91.70;;;;;;6010408;23;20405;-61
2023/06/02 01:27:50;;;;;;;13.17;8.30;;;11.90;91.70;;;;;;6009822;23;20421;-61
2023/06/02 01:30:17;;;;;;;12.87;8.60;;;11.80;91.30;;;;;;6010012;23;20452;-61
2023/06/02 01:32:52;;;;;;;15.50;7.80;;;11.80;91.30;;;;;;6009880;23;20405;-61
2023/06/02 01:35:21;;;;;;;13.87;8.47;;;11.80;90.60;;;;;;6010354;23;20405;-61
2023/06/02 01:37:54;;;;;;;18.30;7.80;;;11.80;91.30;;;;;;6010176;23;20477;-61
2023/06/02 01:40:24;;;;;;;12.57;8.47;;;11.80;91.30;;;;;;6010268;23;20696;-61
2023/06/02 01:42:53;;;;;;;16.63;8.77;;;11.80;90.00;;;;;;6010205;23;20792;-61
2023/06/02 01:45:21;;;;;;;13.93;9.60;;;11.80;90.40;;;;;;6011657;23;20422;-61
2023/06/02 01:47:48;;;;;;;13.63;9.20;;;11.80;89.10;;;;;;6011952;23;20430;-61
2023/06/02 01:50:15;;;;;;;16.17;10.50;;;11.80;89.10;;;;;;6011891;23;20445;-61
2023/06/02 01:52:41;;;;;;;14.73;10.43;;;11.70;88.70;;;;;;6011774;23;20755;-61
2023/06/02 01:55:09;;;;;;;15.50;10.70;;;11.70;88.60;;;;;;6011993;23;20431;-61
2023/06/02 01:57:37;;;;;;;18.20;10.67;;;11.70;88.40;;;;;;6011888;23;20421;-61
2023/06/02 02:00:05;;;;;;;12.63;9.10;;;11.70;89.00;;;;;;6011936;23;20417;-61
2023/06/02 02:02:32;;;;;;;20.07;12.30;;;11.70;88.20;;;;;;6011636;23;20754;-61
2023/06/02 02:04:59;;;;;;;24.53;12.47;;;11.70;88.70;;;;;;6011471;23;20420;-61
2023/06/02 02:07:28;;;;;;;18.47;10.67;;;11.70;88.50;;;;;;6011658;23;20421;-61
2023/06/02 02:09:55;;;;;;;17.90;14.00;;;11.70;88.70;;;;;;6011720;23;20442;-61
2023/06/02 02:12:22;;;;;;;26.50;16.70;;;11.60;87.30;;;;;;6011692;23;20420;-61
2023/06/02 02:14:53;;;;;;;13.90;8.03;;;11.60;86.10;;;;;;6011851;23;20421;-61
2023/06/02 02:17:25;;;;;;;14.30;9.30;;;11.60;86.20;;;;;;6011809;23;20405;-61
2023/06/02 02:19:55;;;;;;;18.90;8.63;;;11.50;86.10;;;;;;6011638;23;20401;-61
2023/06/02 02:22:22;;;;;;;20.87;8.97;;;11.50;86.00;;;;;;6011590;23;20495;-61
2023/06/02 02:24:49;;;;;;;12.20;5.53;;;11.50;86.00;;;;;;6011780;23;20424;-61
2023/06/02 02:27:16;;;;;;;14.70;7.90;;;11.40;85.90;;;;;;6011672;23;20457;-61
2023/06/02 02:29:44;;;;;;;18.93;10.73;;;11.40;84.00;;;;;;6011464;23;20447;-61
2023/06/02 02:32:12;;;;;;;25.70;13.23;;;11.40;84.30;;;;;;6011494;23;20481;-61
2023/06/02 02:34:39;;;;;;;22.43;14.83;;;11.40;82.70;;;;;;6011220;23;20420;-61
2023/06/02 02:37:06;;;;;;;32.50;17.00;;;11.40;82.80;;;;;;6011164;23;20449;-61
2023/06/02 02:39:33;;;;;;;27.23;18.07;;;11.40;83.40;;;;;;6011557;23;20786;-61
2023/06/02 02:42:01;;;;;;;26.93;16.00;;;11.40;85.10;;;;;;6011412;23;20444;-61
2023/06/02 02:44:27;;;;;;;28.33;18.27;;;11.30;84.70;;;;;;6011532;23;20421;-61
2023/06/02 02:46:54;;;;;;;24.60;14.90;;;11.30;84.40;;;;;;6011009;23;20421;-61
2023/06/02 02:49:22;;;;;;;34.50;18.43;;;11.30;83.50;;;;;;6011038;23;20448;-61
2023/06/02 02:51:49;;;;;;;27.20;16.53;;;11.30;84.30;;;;;;6011102;23;20778;-61
2023/06/02 02:54:16;;;;;;;26.70;16.37;;;11.20;84.00;;;;;;6011098;23;20430;-61
2023/06/02 02:56:43;;;;;;;28.53;16.93;;;11.30;84.60;;;;;;6011004;23;20445;-62
2023/06/02 02:59:12;;;;;;;21.97;14.70;;;11.20;83.80;;;;;;6011058;23;20428;-61
2023/06/02 03:01:43;;;;;;;22.57;13.27;;;11.20;84.90;;;;;;6011253;23;20422;-61
2023/06/02 03:04:10;;;;;;;25.73;15.30;;;11.20;84.20;;;;;;6011320;23;20486;-61
2023/06/02 03:06:40;;;;;;;24.80;15.60;;;11.20;84.70;;;;;;6011303;23;20432;-61
2023/06/02 03:09:07;;;;;;;25.20;15.77;;;11.10;85.10;;;;;;6011255;23;20427;-61
2023/06/02 03:11:34;;;;;;;22.50;15.90;;;11.10;84.90;;;;;;6010794;23;20914;-61
2023/06/02 03:14:01;;;;;;;24.10;16.23;;;11.20;85.00;;;;;;6011282;23;20420;-61
2023/06/02 03:16:29;;;;;;;26.33;17.77;;;11.20;84.60;;;;;;6011223;23;20424;-61
2023/06/02 03:18:56;;;;;;;24.90;16.60;;;11.10;84.50;;;;;;6011221;23;20428;-61
2023/06/02 03:21:23;;;;;;;29.43;18.10;;;11.10;84.40;;;;;;6011261;23;20418;-61
2023/06/02 03:23:51;;;;;;;32.73;19.20;;;11.10;84.20;;;;;;6011070;23;20420;-61
2023/06/02 03:26:25;;;;;;;28.87;18.23;;;11.10;84.00;;;;;;6011140;23;20428;-61
2023/06/02 03:28:52;;;;;;;27.00;15.40;;;11.10;81.90;;;;;;6011169;23;20500;-61
2023/06/02 03:31:19;;;;;;;34.47;17.53;;;11.10;81.90;;;;;;6010677;23;20444;-61
2023/06/02 03:33:47;;;;;;;24.13;16.70;;;11.10;82.90;;;;;;6011174;23;20513;-61
2023/06/02 03:36:17;;;;;;;24.60;16.50;;;11.10;83.00;;;;;;6011198;23;20424;-61
2023/06/02 03:38:44;;;;;;;25.10;16.83;;;11.10;83.20;;;;;;6010655;23;20807;-61
2023/06/02 03:41:12;;;;;;;23.00;13.93;;;11.10;81.90;;;;;;6010944;23;20734;-61
2023/06/02 03:43:40;;;;;;;30.30;16.70;;;11.10;82.40;;;;;;6010796;23;20420;-61
2023/06/02 03:46:06;;;;;;;24.53;16.60;;;11.00;82.70;;;;;;6011045;23;20430;-61
2023/06/02 03:48:35;;;;;;;26.77;16.93;;;11.10;84.10;;;;;;6010798;23;20420;-61
2023/06/02 03:51:03;;;;;;;27.90;16.57;;;11.10;84.00;;;;;;6010540;23;20512;-61
2023/06/02 03:53:31;;;;;;;27.50;17.30;;;11.10;85.20;;;;;;6010304;23;20889;-61
2023/06/02 03:55:57;;;;;;;26.20;16.50;;;11.10;84.60;;;;;;6010870;23;20751;-61
2023/06/02 03:58:26;;;;;;;25.33;16.17;;;11.10;83.30;;;;;;6010386;23;20425;-61
2023/06/02 04:00:54;;;;;;;27.37;17.93;;;11.10;83.60;;;;;;6010558;23;20416;-61
2023/06/02 04:03:22;;;;;;;25.13;16.53;;;11.10;84.20;;;;;;6010633;23;20420;-61
2023/06/02 04:05:49;;;;;;;29.30;16.37;;;11.00;82.90;;;;;;6010479;23;20421;-61
2023/06/02 04:08:16;;;;;;;33.77;18.10;;;11.00;82.50;;;;;;6009821;23;20420;-61
2023/06/02 04:10:43;;;;;;;31.33;18.27;;;11.10;81.00;;;;;;6010692;23;20445;-61
2023/06/02 04:13:10;;;;;;;37.60;19.57;;;11.00;81.50;;;;;;6010635;23;20421;-61
2023/06/02 04:15:38;;;;;;;36.60;19.87;;;11.00;80.20;;;;;;6010420;23;20424;-61
2023/06/02 04:18:05;;;;;;;32.87;19.37;;;11.00;80.40;;;;;;6010237;23;20487;-61
2023/06/02 04:20:32;;;;;;;37.17;24.90;;;11.00;79.60;;;;;;6010627;23;20420;-61
2023/06/02 04:22:59;;;;;;;35.60;21.97;;;11.10;81.00;;;;;;6010464;23;20428;-61
2023/06/02 04:25:26;;;;;;;42.13;23.40;;;11.00;79.60;;;;;;6010736;23;20425;-61
2023/06/02 04:27:53;;;;;;;35.40;21.90;;;10.90;77.80;;;;;;6010569;23;20772;-61
2023/06/02 04:30:19;;;;;;;29.40;20.47;;;11.00;77.90;;;;;;6010301;23;20451;-61
2023/06/02 04:32:49;;;;;;;34.43;20.93;;;10.90;77.80;;;;;;6010098;23;20420;-61
2023/06/02 04:35:16;;;;;;;22.83;13.70;;;11.00;77.90;;;;;;6010550;23;20421;-61
2023/06/02 04:37:45;;;;;;;32.37;20.40;;;10.90;77.70;;;;;;6010173;23;20428;-61
2023/06/02 04:40:12;;;;;;;37.33;20.07;;;10.90;77.40;;;;;;6010267;23;20420;-61
2023/06/02 04:42:39;;;;;;;25.40;17.43;;;10.90;74.60;;;;;;6010450;23;20421;-61
2023/06/02 04:45:11;;;;;;;14.40;9.37;;;10.90;76.80;;;;;;6010569;23;20425;-61
2023/06/02 04:47:38;;;;;;;19.43;9.67;;;10.90;75.60;;;;;;6010798;23;20788;-61
2023/06/02 04:50:08;;;;;;;14.83;7.40;;;10.90;75.30;;;;;;6010492;23;20770;-61
2023/06/02 04:52:36;;;;;;;14.53;8.00;;;10.90;73.80;;;;;;6010393;23;20427;-61
2023/06/02 04:55:03;;;;;;;13.57;6.97;;;10.90;74.90;;;;;;6010523;23;20420;-61
2023/06/02 04:57:30;;;;;;;13.23;7.43;;;11.00;74.30;;;;;;6010403;23;20506;-61
2023/06/02 04:59:57;;;;;;;11.97;8.13;;;11.00;74.30;;;;;;6010787;23;20715;-61
2023/06/02 05:02:23;;;;;;;11.70;8.07;;;11.00;75.10;;;;;;6009952;23;20426;-61
2023/06/02 05:04:50;;;;;;;23.93;8.67;;;11.10;74.00;;;;;;6010391;23;20429;-61
2023/06/02 05:07:18;;;;;;;18.83;10.40;;;11.20;75.30;;;;;;6010354;23;20425;-61
2023/06/02 05:09:45;;;;;;;18.70;8.80;;;11.20;73.90;;;;;;6010300;23;20421;-61
2023/06/02 05:12:12;;;;;;;15.90;8.77;;;11.20;72.90;;;;;;6010200;23;20443;-61
2023/06/02 05:14:39;;;;;;;21.20;9.97;;;11.30;71.70;;;;;;6010409;23;20428;-61
2023/06/02 05:17:07;;;;;;;23.93;9.73;;;11.30;70.80;;;;;;6010253;23;20489;-61
2023/06/02 05:19:34;;;;;;;18.03;9.83;;;11.30;72.40;;;;;;6011164;23;20723;-61
2023/06/02 05:22:02;;;;;;;33.43;12.80;;;11.30;70.20;;;;;;6012210;23;20416;-61
2023/06/02 05:24:30;;;;;;;16.40;10.67;;;11.30;71.70;;;;;;6011805;23;20452;-61
2023/06/02 05:26:57;;;;;;;28.37;15.60;;;11.30;70.20;;;;;;6011786;23;20472;-61
2023/06/02 05:29:23;;;;;;;30.43;14.90;;;11.40;71.30;;;;;;6012102;23;20743;-61
2023/06/02 05:31:50;;;;;;;27.60;16.60;;;11.40;72.20;;;;;;6011500;23;20448;-61
2023/06/02 05:34:17;;;;;;;28.30;11.07;;;11.40;72.70;;;;;;6011868;23;20910;-61
2023/06/02 05:36:44;;;;;;;25.30;15.50;;;11.50;72.10;;;;;;6011623;23;20479;-61
2023/06/02 05:39:11;;;;;;;29.47;17.00;;;11.50;73.20;;;;;;6012019;23;20420;-61
2023/06/02 05:41:39;;;;;;;19.03;12.23;;;11.60;74.30;;;;;;6011694;23;20906;-61
2023/06/02 05:44:06;;;;;;;19.27;9.93;;;11.50;71.80;;;;;;6012092;23;20452;-61
2023/06/02 05:46:33;;;;;;;18.97;9.33;;;11.50;70.40;;;;;;6012025;23;20421;-61
2023/06/02 05:49:00;;;;;;;16.97;7.47;;;11.60;71.70;;;;;;6012161;23;20421;-61
2023/06/02 05:51:26;;;;;;;19.33;8.37;;;11.60;70.50;;;;;;6011932;23;20441;-61
2023/06/02 05:53:53;;;;;;;12.90;7.87;;;11.60;72.40;;;;;;6011902;23;20444;-62
2023/06/02 05:56:21;;;;;;;16.73;10.30;;;11.70;71.80;;;;;;6011742;23;20480;-61
2023/06/02 05:58:49;;;;;;;19.77;10.20;;;11.70;70.70;;;;;;6011587;23;20906;-61
2023/06/02 06:01:16;;;;;;;17.73;8.73;;;11.70;70.60;;;;;;6012138;23;20415;-62
2023/06/02 06:03:43;;;;;;;22.07;9.23;;;11.70;69.40;;;;;;6011467;23;20425;-61
2023/06/02 06:06:10;;;;;;;13.07;7.87;;;11.60;70.50;;;;;;6011789;23;20428;-61
2023/06/02 06:08:37;;;;;;;17.60;11.83;;;11.60;69.90;;;;;;6012071;23;20757;-61
2023/06/02 06:11:04;;;;;;;18.80;10.23;;;11.70;70.10;;;;;;6011811;23;20812;-61
2023/06/02 06:13:30;;;;;;;22.77;12.30;;;11.70;69.90;;;;;;6021263;23;20414;-61
2023/06/02 06:15:59;;;;;;;18.03;8.87;;;11.70;68.60;;;;;;6011808;23;20421;-61
2023/06/02 06:18:25;;;;;;;24.50;11.50;;;11.70;69.90;;;;;;6011392;23;20421;-61
2023/06/02 06:20:52;;;;;;;21.03;10.83;;;11.80;70.70;;;;;;6011829;23;20732;-63
2023/06/02 06:23:19;;;;;;;26.57;17.13;;;11.90;70.80;;;;;;6011433;23;20417;-61
2023/06/02 06:25:46;;;;;;;25.43;14.97;;;12.00;69.00;;;;;;6011715;23;20423;-61
2023/06/02 06:28:13;;;;;;;20.10;12.20;;;12.20;69.50;;;;;;6011627;23;20425;-61
2023/06/02 06:30:40;;;;;;;27.73;7.30;;;12.30;68.60;;;;;;6011103;23;20452;-61
2023/06/02 06:33:08;;;;;;;16.60;6.90;;;12.30;67.70;;;;;;6011126;23;20459;-61
2023/06/02 06:35:35;;;;;;;11.07;6.60;;;12.40;67.60;;;;;;6009794;23;20422;-61
2023/06/02 06:38:05;;;;;;;11.80;7.00;;;12.30;66.60;;;;;;6010836;23;20426;-61
2023/06/02 06:40:32;;;;;;;17.33;6.03;;;12.40;66.90;;;;;;6011092;23;20429;-61
2023/06/02 06:43:02;;;;;;;12.13;6.83;;;12.50;65.70;;;;;;6010632;23;20419;-61
2023/06/02 06:45:30;;;;;;;11.30;7.43;;;12.70;67.50;;;;;;6011035;23;20442;-61
2023/06/02 06:47:57;;;;;;;16.73;7.47;;;12.70;64.90;;;;;;6010816;23;20429;-61
2023/06/02 06:50:25;;;;;;;17.13;7.70;;;12.60;63.30;;;;;;6010895;23;20418;-61
2023/06/02 06:52:52;;;;;;;21.93;6.80;;;12.80;63.60;;;;;;6010649;23;20421;-61
2023/06/02 06:55:19;;;;;;;18.73;7.20;;;12.90;63.80;;;;;;6010977;23;20419;-61
2023/06/02 06:57:46;;;;;;;13.83;6.53;;;12.90;63.60;;;;;;6010921;23;20422;-61
2023/06/02 07:00:14;;;;;;;17.87;7.70;;;13.00;63.70;;;;;;6011062;23;20516;-61
2023/06/02 07:02:43;;;;;;;14.47;8.87;;;13.10;63.80;;;;;;6009745;23;20419;-61
2023/06/02 07:05:10;;;;;;;17.10;10.20;;;12.90;63.60;;;;;;6010430;23;20447;-61
2023/06/02 07:07:38;;;;;;;24.40;9.77;;;12.90;63.60;;;;;;6010454;23;20419;-61
2023/06/02 07:10:05;;;;;;;14.30;6.50;;;13.20;65.60;;;;;;6011040;23;20426;-61
2023/06/02 07:12:32;;;;;;;15.37;7.70;;;13.20;63.90;;;;;;6009998;23;20454;-61
2023/06/02 07:14:59;;;;;;;17.00;8.90;;;13.40;64.10;;;;;;6010932;23;20423;-61
2023/06/02 07:17:25;;;;;;;26.20;17.80;;;13.50;64.20;;;;;;6011227;23;20479;-61
2023/06/02 07:19:53;;;;;;;30.63;18.70;;;13.20;59.80;;;;;;6011229;23;20768;-61
2023/06/02 07:22:22;;;;;;;25.47;16.50;;;13.10;60.20;;;;;;6011061;23;20414;-61
2023/06/02 07:24:51;;;;;;;37.20;18.00;;;12.80;59.20;;;;;;6010611;23;20418;-61
2023/06/02 07:27:18;;;;;;;28.93;17.63;;;12.70;59.80;;;;;;6010889;23;20419;-62
2023/06/02 07:29:45;;;;;;;27.70;17.95;;;12.80;59.20;;;;;;6009545;23;20735;-63
2023/06/02 07:32:14;;;;;;;22.33;13.03;;;12.90;61.80;;;;;;6010995;23;20204;-68
2023/06/02 07:34:41;;;;;;;19.40;8.40;;;13.10;63.80;;;;;;6011163;23;20426;-69
2023/06/02 07:37:08;;;;;;;13.80;8.60;;;13.00;60.00;;;;;;6011639;23;20715;-69
2023/06/02 07:39:35;;;;;;;17.77;8.73;;;13.20;58.60;;;;;;6011297;23;20423;-69
2023/06/02 07:42:03;;;;;;;20.03;10.37;;;13.70;57.90;;;;;;6011334;23;20418;-72
2023/06/02 07:44:30;;;;;;;16.57;10.33;;;13.70;56.00;;;;;;6011106;23;20418;-70
2023/06/02 07:46:57;;;;;;;19.10;11.60;;;13.70;56.00;;;;;;6011425;23;20423;-69
2023/06/02 07:49:24;;;;;;;19.10;12.03;;;13.70;57.90;;;;;;6011654;23;20422;-68
2023/06/02 07:51:50;;;;;;;20.90;14.33;;;13.60;55.90;;;;;;6009974;23;20429;-69
2023/06/02 07:54:17;;;;;;;19.13;12.43;;;13.80;58.00;;;;;;6011455;23;20421;-69
2023/06/02 07:56:44;;;;;;;24.57;12.50;;;13.70;53.60;;;;;;6011514;23;20749;-68
2023/06/02 07:59:12;;;;;;;18.47;11.43;;;14.00;56.30;;;;;;6011375;23;20430;-69
2023/06/02 08:01:39;;;;;;;18.90;10.80;;;14.60;49.90;;;;;;6010764;23;20443;-69
2023/06/02 08:04:06;;;;;;;24.23;11.60;;;14.80;49.60;;;;;;6011279;23;20425;-69
2023/06/02 08:06:33;;;;;;;15.93;10.33;;;14.60;50.30;;;;;;6011095;23;20422;-67
2023/06/02 08:09:00;;;;;;;17.70;11.50;;;14.70;55.60;;;;;;6011020;23;20421;-67
2023/06/02 08:11:27;;;;;;;20.20;10.73;;;14.70;49.50;;;;;;6011248;23;20438;-67
2023/06/02 08:13:54;;;;;;;16.33;10.67;;;14.80;48.40;;;;;;6011205;23;20418;-67
2023/06/02 08:16:22;;;;;;;21.23;12.27;;;15.10;48.60;;;;;;6010240;23;20428;-70
2023/06/02 08:18:48;;;;;;;18.00;10.13;;;14.80;48.10;;;;;;6010694;23;20464;-69
2023/06/02 08:21:15;;;;;;;16.53;11.47;;;14.60;48.20;;;;;;6010570;23;20421;-69
2023/06/02 08:23:42;;;;;;;17.23;12.47;;;14.60;49.90;;;;;;6010696;23;20423;-61
2023/06/02 08:26:09;;;;;;;23.60;12.47;;;14.80;48.40;;;;;;6010729;23;20422;-61
2023/06/02 08:28:37;;;;;;;21.60;12.53;;;14.80;45.70;;;;;;6010526;23;20810;-61
2023/06/02 08:31:04;;;;;;;20.70;11.17;;;14.50;48.10;;;;;;6010250;23;20542;-61
2023/06/02 08:33:33;;;;;;;21.90;12.47;;;14.40;48.00;;;;;;6011014;23;20741;-62
2023/06/02 08:36:02;;;;;;;21.83;13.67;;;14.40;50.10;;;;;;6010964;23;20419;-62
2023/06/02 08:38:30;;;;;;;22.53;10.70;;;14.80;48.40;;;;;;6010163;23;20419;-62
2023/06/02 08:40:58;;;;;;;17.73;10.70;;;15.00;45.00;;;;;;6011002;23;20518;-61
2023/06/02 08:43:25;;;;;;;26.70;12.47;;;14.90;44.90;;;;;;6010437;23;20422;-62
2023/06/02 08:45:52;;;;;;;17.50;11.80;;;15.00;48.50;;;;;;6010365;23;20426;-61
2023/06/02 08:48:19;;;;;;;22.23;13.07;;;14.80;50.90;;;;;;6010086;23;20427;-69
2023/06/02 08:50:51;;;;;;;23.60;15.57;;;14.50;48.10;;;;;;6010524;23;20425;-69
2023/06/02 08:53:19;;;;;;;29.40;18.33;;;14.40;48.00;;;;;;6009836;23;20402;-69
2023/06/02 08:55:49;;;;;;;23.67;16.80;;;14.50;48.10;;;;;;6010340;23;20419;-69
2023/06/02 08:58:16;;;;;;;25.63;13.50;;;14.80;48.40;;;;;;6009940;23;20425;-69
2023/06/02 09:00:43;;;;;;;20.73;12.40;;;15.00;48.50;;;;;;6010503;23;20502;-69
2023/06/02 09:03:14;;;;;;;21.37;13.00;;;15.10;43.80;;;;;;6010277;23;20805;-69
2023/06/02 09:05:43;;;;;;;22.70;14.20;;;15.00;41.90;;;;;;6010199;23;20403;-69
2023/06/02 09:08:12;;;;;;;21.03;11.50;;;15.50;42.00;;;;;;6009948;23;20451;-69
2023/06/02 09:10:41;;;;;;;17.20;11.73;;;15.60;40.30;;;;;;6010063;23;20926;-69
2023/06/02 09:13:08;;;;;;;19.67;13.40;;;15.90;40.50;;;;;;6009815;23;20969;-69
2023/06/02 09:15:36;;;;;;;14.60;9.10;;;16.50;38.00;;;;;;6010425;23;20440;-69
2023/06/02 09:18:14;;;;;;;19.13;12.20;;;15.50;39.70;;;;;;6010199;23;20419;-69
2023/06/02 09:20:41;;;;;;;24.20;12.80;;;15.50;41.90;;;;;;6010393;23;20477;-69
2023/06/02 09:23:08;;;;;;;22.13;12.10;;;16.40;39.70;;;;;;6010567;23;20436;-69
2023/06/02 09:25:38;;;;;;;26.00;13.60;;;16.50;34.80;;;;;;6009969;23;20418;-69
2023/06/02 09:28:05;;;;;;;22.53;11.83;;;16.80;38.20;;;;;;6009829;23;20531;-70
2023/06/02 09:30:31;;;;;;;18.90;11.63;;;17.80;33.20;;;;;;6010180;23;20437;-69
2023/06/02 09:33:00;;;;;;;20.10;12.30;;;17.60;29.70;;;;;;6009999;23;20443;-70
2023/06/02 09:35:35;;;;;;;16.30;11.70;;;18.70;32.90;;;;;;6010235;23;20430;-69
2023/06/02 09:38:02;;;;;;;15.27;9.30;;;19.60;29.30;;;;;;6010299;23;20740;-69
2023/06/02 09:40:29;;;;;;;15.70;10.23;;;18.10;26.00;;;;;;6010254;23;20426;-69
2023/06/02 09:42:57;;;;;;;18.60;10.23;;;17.60;26.50;;;;;;6010180;23;20739;-69
2023/06/02 09:45:24;;;;;;;13.53;7.50;;;17.30;31.50;;;;;;6009974;23;20426;-68
2023/06/02 09:47:51;;;;;;;13.07;9.60;;;17.80;33.20;;;;;;6010062;23;20908;-69
2023/06/02 09:50:38;;;;;;;15.43;10.33;;;17.00;32.50;;;;;;6010337;23;20745;-69
2023/06/02 09:53:06;;;;;;;16.53;11.73;;;16.50;32.00;;;;;;6009958;23;20445;-69
2023/06/02 09:55:35;;;;;;;16.57;11.53;;;16.50;35.80;;;;;;6010159;23;20425;-69
2023/06/02 09:58:04;;;;;;;16.50;11.43;;;17.00;32.50;;;;;;6010186;23;20418;-69
2023/06/02 10:00:32;;;;;;;13.77;8.93;;;18.30;29.80;;;;;;6009833;23;20422;-69
2023/06/02 10:02:59;;;;;;;20.13;11.90;;;18.40;25.90;;;;;;6010129;23;20425;-69
2023/06/02 10:05:26;;;;;;;19.23;11.70;;;17.70;27.10;;;;;;6011009;23;20746;-68
2023/06/02 10:08:14;;;;;;;12.40;8.10;;;17.50;33.00;;;;;;6011876;23;20425;-69
2023/06/02 10:10:53;;;;;;;14.37;10.20;;;18.50;28.90;;;;;;6011496;23;20860;-69
2023/06/02 10:13:36;;;;;;;17.50;9.50;;;19.50;23.60;;;;;;6011244;23;20931;-69
2023/06/02 10:16:18;;;;;;;17.10;9.80;;;19.80;21.60;;;;;;6011967;23;20407;-69
2023/06/02 10:19:17;;;;;;;16.43;8.23;;;19.60;18.70;;;;;;6011413;23;20410;-69
2023/06/02 10:21:59;;;;;;;16.83;8.33;;;18.20;21.40;;;;;;6011195;23;20414;-69
2023/06/02 10:24:38;;;;;;;15.93;9.93;;;18.40;26.60;;;;;;6011760;23;20459;-69
2023/06/02 10:27:19;;;;;;;15.17;9.43;;;17.80;25.40;;;;;;6011729;23;20438;-69
2023/06/02 10:29:50;;;;;;;17.48;11.02;;;17.90;22.00;;;;;;6011087;23;20424;-68
2023/06/02 10:32:25;;;;;;;15.70;10.00;;;18.30;27.30;;;;;;6011865;23;20190;-66
2023/06/02 10:34:52;;;;;;;20.27;9.47;;;18.10;27.70;;;;;;6012239;23;20402;-66
2023/06/02 10:37:20;;;;;;;14.27;9.40;;;18.90;26.90;;;;;;6011711;23;20418;-66
2023/06/02 10:39:50;;;;;;;20.40;10.50;;;19.80;22.80;;;;;;6011881;23;20426;-68
2023/06/02 10:42:18;;;;;;;17.70;12.27;;;18.50;18.80;;;;;;6011980;23;20499;-66
2023/06/02 10:44:48;;;;;;;16.80;10.50;;;18.30;21.30;;;;;;6012160;23;20479;-65
2023/06/02 10:47:36;;;;;;;23.53;11.67;;;18.00;25.60;;;;;;6012070;23;20484;-67
2023/06/02 10:50:09;;;;;;;16.20;9.07;;;17.60;27.90;;;;;;6012361;23;20446;-66
2023/06/02 10:52:57;;;;;;;18.97;10.90;;;18.50;24.50;;;;;;6011944;23;20430;-66
2023/06/02 10:55:28;;;;;;;22.10;10.90;;;18.50;23.60;;;;;;6011822;23;20419;-66
2023/06/02 10:57:55;;;;;;;15.37;11.20;;;19.20;20.80;;;;;;6012008;23;20426;-67
2023/06/02 11:00:49;;;;;;;15.50;9.73;;;19.70;19.50;;;;;;6012177;23;20538;-67
2023/06/02 11:03:33;;;;;;;18.43;10.87;;;20.40;22.20;;;;;;6011957;23;20460;-66
2023/06/02 11:06:21;;;;;;;15.93;10.10;;;20.20;17.90;;;;;;6011930;23;20419;-66
2023/06/02 11:08:52;;;;;;;16.00;10.00;;;20.40;16.30;;;;;;6003278;23;20425;-67
2023/06/02 11:11:52;;;;;;;17.53;9.30;;;20.00;24.40;;;;;;6011892;23;20474;-66
2023/06/02 11:14:19;;;;;;;15.10;10.23;;;20.10;15.40;;;;;;6011979;23;20478;-67
2023/06/02 11:17:29;;;;;;;17.23;10.27;;;19.70;19.50;;;;;;6011589;23;20423;-67
2023/06/02 11:19:57;;;;;;;21.07;8.60;;;20.40;16.30;;;;;;6011583;23;20455;-66
2023/06/02 11:22:24;;;;;;;12.37;7.50;;;21.00;12.90;;;;;;6011763;23;20414;-66
2023/06/02 11:24:52;;;;;;;13.00;7.00;;;21.70;10.60;;;;;;6011854;23;20442;-66
2023/06/02 11:27:18;;;;;;;10.73;7.47;;;21.60;12.10;;;;;;6011641;23;20426;-67
2023/06/02 11:29:45;;;;;;;13.67;8.27;;;22.30;10.30;;;;;;6011297;23;20419;-67
2023/06/02 11:32:15;;;;;;;13.10;6.93;;;22.10;6.10;;;;;;6011295;23;20434;-66
2023/06/02 11:34:43;;;;;;;11.27;6.17;;;21.70;8.00;;;;;;6011873;23;20419;-66
2023/06/02 11:37:16;;;;;;;19.03;7.50;;;22.90;6.60;;;;;;6011238;23;20449;-66
2023/06/02 11:39:50;;;;;;;11.43;5.80;;;23.10;5.20;;;;;;6011718;23;20409;-67
2023/06/02 11:42:17;;;;;;;11.90;5.70;;;22.40;6.30;;;;;;6011158;23;20414;-66
2023/06/02 11:44:51;;;;;;;13.60;5.90;;;22.40;6.30;;;;;;6011364;23;20429;-66
2023/06/02 11:47:20;;;;;;;13.50;6.50;;;22.70;4.10;;;;;;6011227;23;20426;-66
2023/06/02 11:49:47;;;;;;;16.07;6.67;;;23.30;1.60;;;;;;6011174;23;20422;-66
2023/06/02 11:52:14;;;;;;;16.77;5.27;;;23.30;1.00;;;;;;6011187;23;20746;-66
2023/06/02 11:54:51;;;;;;;12.70;5.40;;;23.00;1.00;;;;;;6011401;23;20418;-69
2023/06/02 11:57:32;;;;;;;14.43;6.37;;;22.80;1.00;;;;;;6009550;23;20429;-69
2023/06/02 12:00:15;;;;;;;14.20;4.90;;;22.60;2.20;;;;;;6010915;23;20474;-69
2023/06/02 12:02:52;;;;;;;12.40;4.83;;;23.20;1.00;;;;;;6010456;23;20462;-69
2023/06/02 12:05:30;;;;;;;17.23;5.50;;;22.80;1.00;;;;;;6010158;23;20406;-69
2023/06/02 12:07:57;;;;;;;11.77;4.80;;;23.70;1.00;;;;;;6010432;23;20784;-69
2023/06/02 12:10:31;;;;;;;13.53;6.17;;;23.50;2.80;;;;;;6009734;23;20425;-69
2023/06/02 12:12:58;;;;;;;14.07;6.40;;;23.30;1.00;;;;;;6009227;23;20432;-69
2023/06/02 12:15:33;;;;;;;14.30;7.03;;;22.90;4.10;;;;;;6009478;23;20418;-69
2023/06/02 12:18:02;;;;;;;12.73;5.30;;;23.20;1.00;;;;;;6009932;23;20454;-69
2023/06/02 12:20:40;;;;;;;13.53;6.23;;;23.90;1.00;;;;;;6010157;23;20419;-69
2023/06/02 12:23:08;;;;;;;17.60;5.53;;;23.80;1.00;;;;;;6010010;23;20455;-69
2023/06/02 12:25:35;;;;;;;12.60;4.40;;;23.10;1.00;;;;;;6010139;23;20422;-67
2023/06/02 12:28:11;;;;;;;14.03;5.73;;;23.50;1.30;;;;;;6009567;23;20754;-67
2023/06/02 12:30:38;;;;;;;15.27;6.30;;;23.90;1.00;;;;;;6009844;23;20934;-65
2023/06/02 12:33:10;;;;;;;16.13;6.40;;;24.00;1.00;;;;;;6009968;23;20758;-65
2023/06/02 12:35:38;;;;;;;11.83;6.47;;;24.40;1.00;;;;;;6010397;23;20441;-65
2023/06/02 12:38:05;;;;;;;15.20;5.10;;;24.50;1.00;;;;;;6010202;23;20423;-65
2023/06/02 12:40:32;;;;;;;11.80;5.53;;;24.70;1.00;;;;;;6010447;23;20426;-65
2023/06/02 12:43:00;;;;;;;16.33;5.90;;;25.20;1.00;;;;;;6019058;23;20418;-65